sensor_id;sensor_type;location;lat;lon;timestamp;P1;durP1;ratioP1;P2;durP2;ratioP2
23406;SDS011;11876;53.438;18.942;2023-02-01T00:00:51;11.25;;;2.22;;
23406;SDS011;11876;53.438;18.942;2023-02-01T00:03:53;11.32;;;2.30;;
23406;SDS011;11876;53.438;18.942;2023-02-01T00:06:56;8.18;;;2.30;;
23406;SDS011;11876;53.438;18.942;2023-02-01T00:09:58;7.65;;;2.22;;
23406;SDS011;11876;53.438;18.942;2023-02-01T00:13:00;9.27;;;2.65;;
23406;SDS011;11876;53.438;18.942;2023-02-01T00:16:06;10.40;;;2.55;;
23406;SDS011;11876;53.438;18.942;2023-02-01T00:19:12;11.60;;;2.50;;
23406;SDS011;11876;53.438;18.942;2023-02-01T00:22:16;8.32;;;2.17;;
23406;SDS011;11876;53.438;18.942;2023-02-01T00:25:18;8.05;;;1.92;;
23406;SDS011;11876;53.438;18.942;2023-02-01T00:28:20;9.45;;;1.83;;
23406;SDS011;11876;53.438;18.942;2023-02-01T00:31:23;4.47;;;2.20;;
23406;SDS011;11876;53.438;18.942;2023-02-01T00:34:29;14.38;;;2.53;;
23406;SDS011;11876;53.438;18.942;2023-02-01T00:37:31;8.57;;;2.15;;
23406;SDS011;11876;53.438;18.942;2023-02-01T00:40:34;7.25;;;1.50;;
23406;SDS011;11876;53.438;18.942;2023-02-01T00:43:38;8.68;;;1.80;;
23406;SDS011;11876;53.438;18.942;2023-02-01T00:46:41;6.30;;;2.28;;
23406;SDS011;11876;53.438;18.942;2023-02-01T00:49:43;8.55;;;2.80;;
23406;SDS011;11876;53.438;18.942;2023-02-01T00:52:46;8.13;;;1.98;;
23406;SDS011;11876;53.438;18.942;2023-02-01T00:55:48;11.23;;;3.10;;
23406;SDS011;11876;53.438;18.942;2023-02-01T00:58:51;8.38;;;2.10;;
23406;SDS011;11876;53.438;18.942;2023-02-01T01:01:53;7.63;;;1.85;;
23406;SDS011;11876;53.438;18.942;2023-02-01T01:04:56;6.43;;;1.90;;
23406;SDS011;11876;53.438;18.942;2023-02-01T01:07:58;9.13;;;1.65;;
23406;SDS011;11876;53.438;18.942;2023-02-01T01:11:05;8.75;;;1.98;;
23406;SDS011;11876;53.438;18.942;2023-02-01T01:14:31;10.63;;;2.10;;
23406;SDS011;11876;53.438;18.942;2023-02-01T01:17:34;6.80;;;1.48;;
23406;SDS011;11876;53.438;18.942;2023-02-01T01:20:37;7.45;;;2.13;;
23406;SDS011;11876;53.438;18.942;2023-02-01T01:23:41;9.75;;;2.33;;
23406;SDS011;11876;53.438;18.942;2023-02-01T01:26:43;7.35;;;1.88;;
23406;SDS011;11876;53.438;18.942;2023-02-01T01:29:46;9.13;;;2.40;;
23406;SDS011;11876;53.438;18.942;2023-02-01T01:32:48;12.35;;;1.98;;
23406;SDS011;11876;53.438;18.942;2023-02-01T01:35:50;8.68;;;1.85;;
23406;SDS011;11876;53.438;18.942;2023-02-01T01:38:53;9.40;;;2.33;;
23406;SDS011;11876;53.438;18.942;2023-02-01T01:41:55;8.20;;;2.15;;
23406;SDS011;11876;53.438;18.942;2023-02-01T01:45:01;14.15;;;2.10;;
23406;SDS011;11876;53.438;18.942;2023-02-01T01:51:29;10.13;;;1.83;;
23406;SDS011;11876;53.438;18.942;2023-02-01T01:54:35;10.82;;;3.13;;
23406;SDS011;11876;53.438;18.942;2023-02-01T01:57:41;12.32;;;2.92;;
23406;SDS011;11876;53.438;18.942;2023-02-01T02:00:45;8.80;;;1.70;;
23406;SDS011;11876;53.438;18.942;2023-02-01T02:03:48;10.65;;;2.33;;
23406;SDS011;11876;53.438;18.942;2023-02-01T02:06:59;10.68;;;3.25;;
23406;SDS011;11876;53.438;18.942;2023-02-01T02:10:05;12.88;;;2.10;;
23406;SDS011;11876;53.438;18.942;2023-02-01T02:13:12;7.65;;;1.85;;
23406;SDS011;11876;53.438;18.942;2023-02-01T02:26:26;7.22;;;1.98;;
23406;SDS011;11876;53.438;18.942;2023-02-01T02:43:54;12.18;;;2.50;;
23406;SDS011;11876;53.438;18.942;2023-02-01T02:47:27;8.90;;;2.38;;
23406;SDS011;11876;53.438;18.942;2023-02-01T02:50:37;11.30;;;3.22;;
23406;SDS011;11876;53.438;18.942;2023-02-01T03:00:47;14.20;;;2.95;;
23406;SDS011;11876;53.438;18.942;2023-02-01T03:04:09;15.80;;;4.03;;
23406;SDS011;11876;53.438;18.942;2023-02-01T03:08:00;15.82;;;3.35;;
23406;SDS011;11876;53.438;18.942;2023-02-01T03:10:47;15.68;;;3.63;;
23406;SDS011;11876;53.438;18.942;2023-02-01T03:13:58;11.35;;;3.40;;
23406;SDS011;11876;53.438;18.942;2023-02-01T03:17:08;13.55;;;3.97;;
23406;SDS011;11876;53.438;18.942;2023-02-01T03:20:17;12.00;;;3.85;;
23406;SDS011;11876;53.438;18.942;2023-02-01T03:23:23;13.18;;;4.43;;
23406;SDS011;11876;53.438;18.942;2023-02-01T03:26:29;19.15;;;3.53;;
23406;SDS011;11876;53.438;18.942;2023-02-01T03:29:37;16.13;;;3.97;;
23406;SDS011;11876;53.438;18.942;2023-02-01T03:32:43;15.60;;;3.22;;
23406;SDS011;11876;53.438;18.942;2023-02-01T03:39:21;17.08;;;3.80;;
23406;SDS011;11876;53.438;18.942;2023-02-01T03:42:33;18.13;;;4.32;;
23406;SDS011;11876;53.438;18.942;2023-02-01T03:45:38;18.48;;;3.40;;
23406;SDS011;11876;53.438;18.942;2023-02-01T03:48:44;14.70;;;4.25;;
23406;SDS011;11876;53.438;18.942;2023-02-01T03:51:47;13.60;;;3.13;;
23406;SDS011;11876;53.438;18.942;2023-02-01T03:54:51;19.70;;;4.07;;
23406;SDS011;11876;53.438;18.942;2023-02-01T03:57:58;13.07;;;3.08;;
23406;SDS011;11876;53.438;18.942;2023-02-01T04:01:04;20.20;;;3.83;;
23406;SDS011;11876;53.438;18.942;2023-02-01T04:04:10;14.80;;;3.38;;
23406;SDS011;11876;53.438;18.942;2023-02-01T04:07:24;13.75;;;3.47;;
23406;SDS011;11876;53.438;18.942;2023-02-01T04:10:27;15.05;;;3.78;;
23406;SDS011;11876;53.438;18.942;2023-02-01T04:13:29;18.98;;;4.28;;
23406;SDS011;11876;53.438;18.942;2023-02-01T04:16:32;14.15;;;4.00;;
23406;SDS011;11876;53.438;18.942;2023-02-01T04:19:34;10.55;;;3.28;;
23406;SDS011;11876;53.438;18.942;2023-02-01T04:22:37;17.38;;;4.22;;
23406;SDS011;11876;53.438;18.942;2023-02-01T04:25:39;19.23;;;5.50;;
23406;SDS011;11876;53.438;18.942;2023-02-01T04:28:42;13.50;;;4.07;;
23406;SDS011;11876;53.438;18.942;2023-02-01T04:31:44;16.65;;;4.93;;
23406;SDS011;11876;53.438;18.942;2023-02-01T04:34:47;14.55;;;4.32;;
23406;SDS011;11876;53.438;18.942;2023-02-01T04:37:50;16.95;;;4.78;;
23406;SDS011;11876;53.438;18.942;2023-02-01T04:40:52;18.00;;;4.80;;
23406;SDS011;11876;53.438;18.942;2023-02-01T04:43:55;18.05;;;4.03;;
23406;SDS011;11876;53.438;18.942;2023-02-01T04:46:57;17.80;;;4.68;;
23406;SDS011;11876;53.438;18.942;2023-02-01T04:50:00;17.05;;;4.68;;
23406;SDS011;11876;53.438;18.942;2023-02-01T04:53:02;12.15;;;4.28;;
23406;SDS011;11876;53.438;18.942;2023-02-01T04:56:04;18.67;;;4.90;;
23406;SDS011;11876;53.438;18.942;2023-02-01T04:59:07;15.15;;;4.32;;
23406;SDS011;11876;53.438;18.942;2023-02-01T05:02:11;19.20;;;5.13;;
23406;SDS011;11876;53.438;18.942;2023-02-01T05:05:13;12.77;;;4.50;;
23406;SDS011;11876;53.438;18.942;2023-02-01T05:08:16;18.70;;;5.45;;
23406;SDS011;11876;53.438;18.942;2023-02-01T05:11:18;13.48;;;4.53;;
23406;SDS011;11876;53.438;18.942;2023-02-01T05:14:39;17.85;;;5.25;;
23406;SDS011;11876;53.438;18.942;2023-02-01T05:17:41;16.42;;;5.53;;
23406;SDS011;11876;53.438;18.942;2023-02-01T05:20:44;14.20;;;5.53;;
23406;SDS011;11876;53.438;18.942;2023-02-01T05:23:46;17.60;;;4.90;;
23406;SDS011;11876;53.438;18.942;2023-02-01T05:27:07;21.13;;;5.55;;
23406;SDS011;11876;53.438;18.942;2023-02-01T05:30:09;16.83;;;4.68;;
23406;SDS011;11876;53.438;18.942;2023-02-01T05:33:12;15.45;;;4.93;;
23406;SDS011;11876;53.438;18.942;2023-02-01T05:36:15;16.90;;;4.50;;
23406;SDS011;11876;53.438;18.942;2023-02-01T05:39:17;10.93;;;3.60;;
23406;SDS011;11876;53.438;18.942;2023-02-01T05:42:20;12.35;;;4.85;;
23406;SDS011;11876;53.438;18.942;2023-02-01T05:45:22;14.75;;;4.57;;
23406;SDS011;11876;53.438;18.942;2023-02-01T05:48:25;15.45;;;4.68;;
23406;SDS011;11876;53.438;18.942;2023-02-01T05:51:27;13.68;;;4.03;;
23406;SDS011;11876;53.438;18.942;2023-02-01T05:54:29;12.45;;;4.18;;
23406;SDS011;11876;53.438;18.942;2023-02-01T05:57:32;17.27;;;4.25;;
23406;SDS011;11876;53.438;18.942;2023-02-01T06:00:34;12.05;;;3.97;;
23406;SDS011;11876;53.438;18.942;2023-02-01T06:03:37;17.55;;;4.88;;
23406;SDS011;11876;53.438;18.942;2023-02-01T06:06:39;12.30;;;4.10;;
23406;SDS011;11876;53.438;18.942;2023-02-01T06:09:42;14.15;;;3.80;;
23406;SDS011;11876;53.438;18.942;2023-02-01T06:12:44;16.73;;;3.70;;
23406;SDS011;11876;53.438;18.942;2023-02-01T06:15:47;13.88;;;4.07;;
23406;SDS011;11876;53.438;18.942;2023-02-01T06:18:49;12.98;;;3.92;;
23406;SDS011;11876;53.438;18.942;2023-02-01T06:21:52;21.73;;;4.85;;
23406;SDS011;11876;53.438;18.942;2023-02-01T06:24:54;13.52;;;5.18;;
23406;SDS011;11876;53.438;18.942;2023-02-01T06:28:00;13.07;;;4.18;;
23406;SDS011;11876;53.438;18.942;2023-02-01T06:31:05;16.88;;;4.75;;
23406;SDS011;11876;53.438;18.942;2023-02-01T06:34:09;18.42;;;4.30;;
23406;SDS011;11876;53.438;18.942;2023-02-01T06:37:11;18.95;;;4.03;;
23406;SDS011;11876;53.438;18.942;2023-02-01T06:40:14;13.65;;;3.80;;
23406;SDS011;11876;53.438;18.942;2023-02-01T06:43:16;16.33;;;4.32;;
23406;SDS011;11876;53.438;18.942;2023-02-01T06:46:19;15.63;;;4.18;;
23406;SDS011;11876;53.438;18.942;2023-02-01T06:49:21;19.38;;;5.25;;
23406;SDS011;11876;53.438;18.942;2023-02-01T06:52:24;19.48;;;5.10;;
23406;SDS011;11876;53.438;18.942;2023-02-01T06:55:26;14.00;;;3.97;;
23406;SDS011;11876;53.438;18.942;2023-02-01T06:58:29;9.98;;;3.75;;
23406;SDS011;11876;53.438;18.942;2023-02-01T07:01:35;15.50;;;3.67;;
23406;SDS011;11876;53.438;18.942;2023-02-01T07:04:37;15.27;;;4.30;;
23406;SDS011;11876;53.438;18.942;2023-02-01T07:07:40;18.85;;;4.78;;
23406;SDS011;11876;53.438;18.942;2023-02-01T07:10:42;11.82;;;3.90;;
23406;SDS011;11876;53.438;18.942;2023-02-01T07:13:45;13.98;;;3.97;;
23406;SDS011;11876;53.438;18.942;2023-02-01T07:16:47;16.65;;;4.78;;
23406;SDS011;11876;53.438;18.942;2023-02-01T07:19:50;23.48;;;6.43;;
23406;SDS011;11876;53.438;18.942;2023-02-01T07:22:55;19.80;;;4.70;;
23406;SDS011;11876;53.438;18.942;2023-02-01T07:26:00;16.67;;;4.53;;
23406;SDS011;11876;53.438;18.942;2023-02-01T07:29:04;17.58;;;3.92;;
23406;SDS011;11876;53.438;18.942;2023-02-01T07:32:07;17.98;;;3.90;;
23406;SDS011;11876;53.438;18.942;2023-02-01T07:35:09;19.20;;;4.65;;
23406;SDS011;11876;53.438;18.942;2023-02-01T07:38:12;20.95;;;4.88;;
23406;SDS011;11876;53.438;18.942;2023-02-01T07:41:15;17.98;;;5.05;;
23406;SDS011;11876;53.438;18.942;2023-02-01T07:44:17;16.92;;;4.97;;
23406;SDS011;11876;53.438;18.942;2023-02-01T07:47:24;20.25;;;4.28;;
23406;SDS011;11876;53.438;18.942;2023-02-01T07:50:26;18.33;;;4.95;;
23406;SDS011;11876;53.438;18.942;2023-02-01T07:53:29;20.35;;;4.32;;
23406;SDS011;11876;53.438;18.942;2023-02-01T07:56:32;18.80;;;4.75;;
23406;SDS011;11876;53.438;18.942;2023-02-01T07:59:34;21.88;;;5.80;;
23406;SDS011;11876;53.438;18.942;2023-02-01T08:02:37;14.55;;;4.30;;
23406;SDS011;11876;53.438;18.942;2023-02-01T08:05:39;17.23;;;5.00;;
23406;SDS011;11876;53.438;18.942;2023-02-01T08:08:41;23.40;;;6.70;;
23406;SDS011;11876;53.438;18.942;2023-02-01T08:11:46;17.13;;;4.63;;
23406;SDS011;11876;53.438;18.942;2023-02-01T08:14:49;19.25;;;5.35;;
23406;SDS011;11876;53.438;18.942;2023-02-01T08:17:51;19.13;;;4.45;;
23406;SDS011;11876;53.438;18.942;2023-02-01T08:20:54;14.75;;;4.30;;
23406;SDS011;11876;53.438;18.942;2023-02-01T08:23:56;15.43;;;4.75;;
23406;SDS011;11876;53.438;18.942;2023-02-01T08:27:00;22.17;;;4.07;;
23406;SDS011;11876;53.438;18.942;2023-02-01T08:30:04;18.38;;;3.97;;
23406;SDS011;11876;53.438;18.942;2023-02-01T08:33:08;12.48;;;3.88;;
23406;SDS011;11876;53.438;18.942;2023-02-01T08:36:11;16.10;;;4.30;;
23406;SDS011;11876;53.438;18.942;2023-02-01T08:39:14;16.13;;;4.65;;
23406;SDS011;11876;53.438;18.942;2023-02-01T08:42:17;19.30;;;5.15;;
23406;SDS011;11876;53.438;18.942;2023-02-01T08:45:39;24.92;;;6.30;;
23406;SDS011;11876;53.438;18.942;2023-02-01T08:48:41;15.70;;;4.95;;
23406;SDS011;11876;53.438;18.942;2023-02-01T08:51:44;20.95;;;6.85;;
23406;SDS011;11876;53.438;18.942;2023-02-01T08:54:46;23.83;;;7.97;;
23406;SDS011;11876;53.438;18.942;2023-02-01T08:57:49;19.17;;;5.25;;
23406;SDS011;11876;53.438;18.942;2023-02-01T09:00:52;12.98;;;3.90;;
23406;SDS011;11876;53.438;18.942;2023-02-01T09:03:55;15.63;;;4.47;;
23406;SDS011;11876;53.438;18.942;2023-02-01T09:06:57;15.80;;;4.93;;
23406;SDS011;11876;53.438;18.942;2023-02-01T09:10:00;13.98;;;3.90;;
23406;SDS011;11876;53.438;18.942;2023-02-01T09:13:02;19.25;;;4.47;;
23406;SDS011;11876;53.438;18.942;2023-02-01T09:16:05;16.70;;;5.25;;
23406;SDS011;11876;53.438;18.942;2023-02-01T09:19:07;18.77;;;4.85;;
23406;SDS011;11876;53.438;18.942;2023-02-01T09:22:27;17.38;;;4.05;;
23406;SDS011;11876;53.438;18.942;2023-02-01T09:25:30;16.02;;;4.22;;
23406;SDS011;11876;53.438;18.942;2023-02-01T09:28:32;12.88;;;4.00;;
23406;SDS011;11876;53.438;18.942;2023-02-01T09:31:35;13.75;;;3.47;;
23406;SDS011;11876;53.438;18.942;2023-02-01T09:34:40;23.58;;;5.47;;
23406;SDS011;11876;53.438;18.942;2023-02-01T09:37:43;16.17;;;3.83;;
23406;SDS011;11876;53.438;18.942;2023-02-01T09:40:46;12.55;;;4.28;;
23406;SDS011;11876;53.438;18.942;2023-02-01T09:44:00;15.98;;;4.60;;
23406;SDS011;11876;53.438;18.942;2023-02-01T09:47:14;14.48;;;3.63;;
23406;SDS011;11876;53.438;18.942;2023-02-01T09:50:19;9.23;;;3.10;;
23406;SDS011;11876;53.438;18.942;2023-02-01T09:53:28;12.15;;;3.85;;
23406;SDS011;11876;53.438;18.942;2023-02-01T09:56:42;16.30;;;3.85;;
23406;SDS011;11876;53.438;18.942;2023-02-01T10:02:59;14.07;;;3.35;;
23406;SDS011;11876;53.438;18.942;2023-02-01T10:10:00;12.35;;;3.90;;
23406;SDS011;11876;53.438;18.942;2023-02-01T10:13:09;10.77;;;3.47;;
23406;SDS011;11876;53.438;18.942;2023-02-01T10:23:20;14.93;;;3.85;;
23406;SDS011;11876;53.438;18.942;2023-02-01T10:26:36;14.80;;;4.23;;
23406;SDS011;11876;53.438;18.942;2023-02-01T10:29:41;9.93;;;3.97;;
23406;SDS011;11876;53.438;18.942;2023-02-01T10:32:48;10.23;;;3.78;;
23406;SDS011;11876;53.438;18.942;2023-02-01T10:35:56;10.60;;;4.75;;
23406;SDS011;11876;53.438;18.942;2023-02-01T10:39:04;11.68;;;3.42;;
23406;SDS011;11876;53.438;18.942;2023-02-01T10:42:09;12.77;;;4.13;;
23406;SDS011;11876;53.438;18.942;2023-02-01T10:45:13;9.77;;;4.20;;
23406;SDS011;11876;53.438;18.942;2023-02-01T10:48:19;11.30;;;3.25;;
23406;SDS011;11876;53.438;18.942;2023-02-01T10:51:26;12.50;;;4.78;;
23406;SDS011;11876;53.438;18.942;2023-02-01T10:54:32;9.18;;;3.80;;
23406;SDS011;11876;53.438;18.942;2023-02-01T10:57:40;14.77;;;4.45;;
23406;SDS011;11876;53.438;18.942;2023-02-01T11:00:44;9.30;;;3.72;;
23406;SDS011;11876;53.438;18.942;2023-02-01T11:03:55;11.45;;;4.10;;
23406;SDS011;11876;53.438;18.942;2023-02-01T11:07:35;13.30;;;4.95;;
23406;SDS011;11876;53.438;18.942;2023-02-01T11:10:39;17.70;;;5.00;;
23406;SDS011;11876;53.438;18.942;2023-02-01T11:13:56;14.32;;;4.50;;
23406;SDS011;11876;53.438;18.942;2023-02-01T11:17:02;18.55;;;5.40;;
23406;SDS011;11876;53.438;18.942;2023-02-01T11:20:21;12.20;;;4.97;;
23406;SDS011;11876;53.438;18.942;2023-02-01T11:23:50;19.02;;;4.93;;
23406;SDS011;11876;53.438;18.942;2023-02-01T11:26:56;19.13;;;5.18;;
23406;SDS011;11876;53.438;18.942;2023-02-01T11:30:00;10.55;;;3.97;;
23406;SDS011;11876;53.438;18.942;2023-02-01T11:33:05;18.95;;;5.00;;
23406;SDS011;11876;53.438;18.942;2023-02-01T11:42:16;12.18;;;4.20;;
23406;SDS011;11876;53.438;18.942;2023-02-01T11:45:23;15.00;;;4.95;;
23406;SDS011;11876;53.438;18.942;2023-02-01T11:48:30;19.65;;;5.05;;
23406;SDS011;11876;53.438;18.942;2023-02-01T11:51:37;14.63;;;4.47;;
23406;SDS011;11876;53.438;18.942;2023-02-01T12:05:37;20.35;;;4.68;;
23406;SDS011;11876;53.438;18.942;2023-02-01T12:09:12;17.73;;;4.82;;
23406;SDS011;11876;53.438;18.942;2023-02-01T12:16:17;12.70;;;3.92;;
23406;SDS011;11876;53.438;18.942;2023-02-01T12:32:55;11.85;;;4.22;;
23406;SDS011;11876;53.438;18.942;2023-02-01T12:36:29;9.82;;;4.80;;
23406;SDS011;11876;53.438;18.942;2023-02-01T12:42:43;10.38;;;3.65;;
23406;SDS011;11876;53.438;18.942;2023-02-01T12:53:01;11.95;;;4.47;;
23406;SDS011;11876;53.438;18.942;2023-02-01T12:56:11;9.90;;;4.47;;
23406;SDS011;11876;53.438;18.942;2023-02-01T13:02:48;11.77;;;4.88;;
23406;SDS011;11876;53.438;18.942;2023-02-01T13:06:15;8.00;;;3.97;;
23406;SDS011;11876;53.438;18.942;2023-02-01T13:09:24;5.82;;;3.22;;
23406;SDS011;11876;53.438;18.942;2023-02-01T13:12:40;7.82;;;3.22;;
23406;SDS011;11876;53.438;18.942;2023-02-01T13:18:53;8.90;;;3.13;;
23406;SDS011;11876;53.438;18.942;2023-02-01T13:22:02;12.35;;;4.07;;
23406;SDS011;11876;53.438;18.942;2023-02-01T13:25:16;11.07;;;4.32;;
23406;SDS011;11876;53.438;18.942;2023-02-01T13:41:42;9.30;;;4.75;;
23406;SDS011;11876;53.438;18.942;2023-02-01T13:44:57;9.60;;;3.85;;
23406;SDS011;11876;53.438;18.942;2023-02-01T13:48:06;7.80;;;3.35;;
23406;SDS011;11876;53.438;18.942;2023-02-01T13:51:08;8.13;;;3.20;;
23406;SDS011;11876;53.438;18.942;2023-02-01T13:57:37;8.82;;;4.60;;
23406;SDS011;11876;53.438;18.942;2023-02-01T14:00:41;9.18;;;4.50;;
23406;SDS011;11876;53.438;18.942;2023-02-01T14:03:56;12.60;;;5.28;;
23406;SDS011;11876;53.438;18.942;2023-02-01T14:07:15;8.30;;;3.80;;
23406;SDS011;11876;53.438;18.942;2023-02-01T14:13:51;5.95;;;3.10;;
23406;SDS011;11876;53.438;18.942;2023-02-01T14:20:36;5.90;;;2.58;;
23406;SDS011;11876;53.438;18.942;2023-02-01T14:26:56;8.32;;;3.50;;
23406;SDS011;11876;53.438;18.942;2023-02-01T14:30:02;8.30;;;3.58;;
23406;SDS011;11876;53.438;18.942;2023-02-01T14:33:18;9.68;;;3.42;;
23406;SDS011;11876;53.438;18.942;2023-02-01T14:36:23;5.68;;;2.50;;
23406;SDS011;11876;53.438;18.942;2023-02-01T14:45:49;6.72;;;2.90;;
23406;SDS011;11876;53.438;18.942;2023-02-01T14:48:52;6.38;;;2.95;;
23406;SDS011;11876;53.438;18.942;2023-02-01T14:51:56;5.95;;;2.20;;
23406;SDS011;11876;53.438;18.942;2023-02-01T14:55:00;9.70;;;2.95;;
23406;SDS011;11876;53.438;18.942;2023-02-01T15:01:39;5.10;;;2.95;;
23406;SDS011;11876;53.438;18.942;2023-02-01T15:04:55;5.32;;;3.15;;
23406;SDS011;11876;53.438;18.942;2023-02-01T15:08:00;8.77;;;3.75;;
23406;SDS011;11876;53.438;18.942;2023-02-01T15:11:10;8.57;;;4.18;;
23406;SDS011;11876;53.438;18.942;2023-02-01T15:14:17;6.25;;;3.15;;
23406;SDS011;11876;53.438;18.942;2023-02-01T15:17:21;6.72;;;3.30;;
23406;SDS011;11876;53.438;18.942;2023-02-01T15:20:26;9.27;;;3.65;;
23406;SDS011;11876;53.438;18.942;2023-02-01T15:23:32;7.68;;;4.25;;
23406;SDS011;11876;53.438;18.942;2023-02-01T15:26:34;10.32;;;4.32;;
23406;SDS011;11876;53.438;18.942;2023-02-01T15:29:37;9.40;;;4.07;;
23406;SDS011;11876;53.438;18.942;2023-02-01T15:32:39;7.50;;;3.22;;
23406;SDS011;11876;53.438;18.942;2023-02-01T15:38:47;7.45;;;3.83;;
23406;SDS011;11876;53.438;18.942;2023-02-01T15:41:51;9.95;;;4.47;;
23406;SDS011;11876;53.438;18.942;2023-02-01T15:44:56;10.95;;;4.80;;
23406;SDS011;11876;53.438;18.942;2023-02-01T15:47:59;8.15;;;4.18;;
23406;SDS011;11876;53.438;18.942;2023-02-01T15:51:02;9.30;;;3.90;;
23406;SDS011;11876;53.438;18.942;2023-02-01T15:54:05;9.40;;;4.03;;
23406;SDS011;11876;53.438;18.942;2023-02-01T15:57:09;11.80;;;4.15;;
23406;SDS011;11876;53.438;18.942;2023-02-01T16:00:20;11.85;;;4.45;;
23406;SDS011;11876;53.438;18.942;2023-02-01T16:03:45;9.38;;;4.40;;
23406;SDS011;11876;53.438;18.942;2023-02-01T16:06:50;5.57;;;3.47;;
23406;SDS011;11876;53.438;18.942;2023-02-01T16:09:58;8.98;;;4.00;;
23406;SDS011;11876;53.438;18.942;2023-02-01T16:13:08;9.98;;;3.20;;
23406;SDS011;11876;53.438;18.942;2023-02-01T16:16:11;7.75;;;3.80;;
23406;SDS011;11876;53.438;18.942;2023-02-01T16:22:18;9.10;;;3.15;;
23406;SDS011;11876;53.438;18.942;2023-02-01T16:25:20;6.65;;;3.88;;
23406;SDS011;11876;53.438;18.942;2023-02-01T16:28:23;7.40;;;4.00;;
23406;SDS011;11876;53.438;18.942;2023-02-01T16:31:30;12.88;;;4.05;;
23406;SDS011;11876;53.438;18.942;2023-02-01T16:34:34;10.93;;;3.20;;
23406;SDS011;11876;53.438;18.942;2023-02-01T16:37:37;7.93;;;3.40;;
23406;SDS011;11876;53.438;18.942;2023-02-01T16:40:40;8.55;;;3.35;;
23406;SDS011;11876;53.438;18.942;2023-02-01T16:43:43;14.20;;;5.10;;
23406;SDS011;11876;53.438;18.942;2023-02-01T16:46:46;12.20;;;4.60;;
23406;SDS011;11876;53.438;18.942;2023-02-01T16:49:49;9.68;;;3.72;;
23406;SDS011;11876;53.438;18.942;2023-02-01T16:52:52;12.43;;;4.07;;
23406;SDS011;11876;53.438;18.942;2023-02-01T16:55:55;9.55;;;4.22;;
23406;SDS011;11876;53.438;18.942;2023-02-01T17:02:01;9.52;;;3.83;;
23406;SDS011;11876;53.438;18.942;2023-02-01T17:05:04;10.18;;;4.60;;
23406;SDS011;11876;53.438;18.942;2023-02-01T17:08:09;10.80;;;4.95;;
23406;SDS011;11876;53.438;18.942;2023-02-01T17:14:16;10.07;;;3.55;;
23406;SDS011;11876;53.438;18.942;2023-02-01T17:17:20;8.38;;;3.67;;
23406;SDS011;11876;53.438;18.942;2023-02-01T17:20:39;10.73;;;3.70;;
23406;SDS011;11876;53.438;18.942;2023-02-01T17:23:41;13.50;;;4.03;;
23406;SDS011;11876;53.438;18.942;2023-02-01T17:26:44;9.52;;;4.30;;
23406;SDS011;11876;53.438;18.942;2023-02-01T17:29:47;8.75;;;3.58;;
23406;SDS011;11876;53.438;18.942;2023-02-01T17:32:49;10.15;;;3.90;;
23406;SDS011;11876;53.438;18.942;2023-02-01T17:35:52;12.57;;;3.40;;
23406;SDS011;11876;53.438;18.942;2023-02-01T17:38:58;7.93;;;3.70;;
23406;SDS011;11876;53.438;18.942;2023-02-01T17:42:09;14.00;;;3.67;;
23406;SDS011;11876;53.438;18.942;2023-02-01T17:48:23;8.10;;;3.25;;
23406;SDS011;11876;53.438;18.942;2023-02-01T17:51:28;10.40;;;4.10;;
23406;SDS011;11876;53.438;18.942;2023-02-01T17:54:32;13.87;;;4.10;;
23406;SDS011;11876;53.438;18.942;2023-02-01T17:57:34;11.05;;;4.32;;
23406;SDS011;11876;53.438;18.942;2023-02-01T18:00:37;6.68;;;3.63;;
23406;SDS011;11876;53.438;18.942;2023-02-01T18:03:40;16.13;;;5.00;;
23406;SDS011;11876;53.438;18.942;2023-02-01T18:06:43;12.75;;;4.60;;
23406;SDS011;11876;53.438;18.942;2023-02-01T18:09:46;16.17;;;7.60;;
23406;SDS011;11876;53.438;18.942;2023-02-01T18:12:48;14.45;;;4.57;;
23406;SDS011;11876;53.438;18.942;2023-02-01T18:15:51;8.83;;;3.60;;
23406;SDS011;11876;53.438;18.942;2023-02-01T18:18:54;24.70;;;6.07;;
23406;SDS011;11876;53.438;18.942;2023-02-01T18:22:02;18.40;;;5.70;;
23406;SDS011;11876;53.438;18.942;2023-02-01T18:28:21;12.68;;;5.00;;
23406;SDS011;11876;53.438;18.942;2023-02-01T18:31:24;14.73;;;5.50;;
23406;SDS011;11876;53.438;18.942;2023-02-01T18:34:28;8.75;;;4.80;;
23406;SDS011;11876;53.438;18.942;2023-02-01T18:37:31;11.55;;;5.07;;
23406;SDS011;11876;53.438;18.942;2023-02-01T18:40:38;12.30;;;4.03;;
23406;SDS011;11876;53.438;18.942;2023-02-01T18:43:48;12.70;;;5.55;;
23406;SDS011;11876;53.438;18.942;2023-02-01T18:46:51;13.35;;;4.78;;
23406;SDS011;11876;53.438;18.942;2023-02-01T18:49:53;11.55;;;5.10;;
23406;SDS011;11876;53.438;18.942;2023-02-01T18:52:56;13.82;;;4.65;;
23406;SDS011;11876;53.438;18.942;2023-02-01T18:56:00;14.13;;;4.22;;
23406;SDS011;11876;53.438;18.942;2023-02-01T18:59:03;16.10;;;6.18;;
23406;SDS011;11876;53.438;18.942;2023-02-01T19:02:05;16.30;;;6.60;;
23406;SDS011;11876;53.438;18.942;2023-02-01T19:05:09;15.65;;;4.85;;
23406;SDS011;11876;53.438;18.942;2023-02-01T19:11:15;11.82;;;4.93;;
23406;SDS011;11876;53.438;18.942;2023-02-01T19:14:17;15.45;;;5.45;;
23406;SDS011;11876;53.438;18.942;2023-02-01T19:17:19;12.98;;;4.18;;
23406;SDS011;11876;53.438;18.942;2023-02-01T19:20:23;10.13;;;4.07;;
23406;SDS011;11876;53.438;18.942;2023-02-01T19:23:26;13.48;;;4.18;;
23406;SDS011;11876;53.438;18.942;2023-02-01T19:26:28;10.52;;;4.38;;
23406;SDS011;11876;53.438;18.942;2023-02-01T19:29:30;13.30;;;4.25;;
23406;SDS011;11876;53.438;18.942;2023-02-01T19:32:33;9.85;;;3.60;;
23406;SDS011;11876;53.438;18.942;2023-02-01T19:35:35;7.78;;;3.55;;
23406;SDS011;11876;53.438;18.942;2023-02-01T19:38:38;15.95;;;4.53;;
23406;SDS011;11876;53.438;18.942;2023-02-01T19:41:41;7.32;;;3.90;;
23406;SDS011;11876;53.438;18.942;2023-02-01T19:44:43;10.57;;;4.40;;
23406;SDS011;11876;53.438;18.942;2023-02-01T19:47:46;11.80;;;4.40;;
23406;SDS011;11876;53.438;18.942;2023-02-01T19:50:48;9.18;;;3.78;;
23406;SDS011;11876;53.438;18.942;2023-02-01T19:53:50;9.25;;;4.20;;
23406;SDS011;11876;53.438;18.942;2023-02-01T19:56:53;6.03;;;3.63;;
23406;SDS011;11876;53.438;18.942;2023-02-01T19:59:55;10.63;;;4.57;;
23406;SDS011;11876;53.438;18.942;2023-02-01T20:02:57;9.18;;;4.20;;
23406;SDS011;11876;53.438;18.942;2023-02-01T20:06:00;12.60;;;4.65;;
23406;SDS011;11876;53.438;18.942;2023-02-01T20:09:03;9.73;;;4.65;;
23406;SDS011;11876;53.438;18.942;2023-02-01T20:12:06;4.87;;;3.27;;
23406;SDS011;11876;53.438;18.942;2023-02-01T20:15:10;11.85;;;4.68;;
23406;SDS011;11876;53.438;18.942;2023-02-01T20:18:13;12.05;;;5.30;;
23406;SDS011;11876;53.438;18.942;2023-02-01T20:21:15;12.02;;;4.85;;
23406;SDS011;11876;53.438;18.942;2023-02-01T20:24:19;13.35;;;5.57;;
23406;SDS011;11876;53.438;18.942;2023-02-01T20:27:21;10.75;;;4.50;;
23406;SDS011;11876;53.438;18.942;2023-02-01T20:30:24;12.43;;;4.95;;
23406;SDS011;11876;53.438;18.942;2023-02-01T20:33:30;11.75;;;4.05;;
23406;SDS011;11876;53.438;18.942;2023-02-01T20:36:32;10.07;;;4.80;;
23406;SDS011;11876;53.438;18.942;2023-02-01T20:39:35;10.95;;;3.95;;
23406;SDS011;11876;53.438;18.942;2023-02-01T20:42:37;12.77;;;4.75;;
23406;SDS011;11876;53.438;18.942;2023-02-01T20:45:41;9.25;;;5.05;;
23406;SDS011;11876;53.438;18.942;2023-02-01T20:48:45;11.68;;;4.15;;
23406;SDS011;11876;53.438;18.942;2023-02-01T20:51:48;9.00;;;4.53;;